sensor_id;sensor_type;location;lat;lon;timestamp;P1;durP1;ratioP1;P2;durP2;ratioP2
46643;SDS011;32371;51.032;5.816;2023-04-25T00:00:24;5.90;;;2.50;;
46643;SDS011;32371;51.032;5.816;2023-04-25T00:02:50;8.18;;;2.17;;
46643;SDS011;32371;51.032;5.816;2023-04-25T00:05:15;11.48;;;2.53;;
46643;SDS011;32371;51.032;5.816;2023-04-25T00:07:41;4.45;;;1.70;;
46643;SDS011;32371;51.032;5.816;2023-04-25T00:10:09;10.05;;;2.78;;
46643;SDS011;32371;51.032;5.816;2023-04-25T00:12:36;8.18;;;2.17;;
46643;SDS011;32371;51.032;5.816;2023-04-25T00:15:01;17.20;;;2.53;;
46643;SDS011;32371;51.032;5.816;2023-04-25T00:17:28;6.82;;;2.08;;
46643;SDS011;32371;51.032;5.816;2023-04-25T00:19:53;7.07;;;2.80;;
46643;SDS011;32371;51.032;5.816;2023-04-25T00:22:19;4.32;;;2.50;;
46643;SDS011;32371;51.032;5.816;2023-04-25T00:24:45;3.80;;;1.95;;
46643;SDS011;32371;51.032;5.816;2023-04-25T00:27:11;8.35;;;1.90;;
46643;SDS011;32371;51.032;5.816;2023-04-25T00:29:36;9.52;;;2.05;;
46643;SDS011;32371;51.032;5.816;2023-04-25T00:32:01;11.88;;;2.42;;
46643;SDS011;32371;51.032;5.816;2023-04-25T00:34:27;7.97;;;1.90;;
46643;SDS011;32371;51.032;5.816;2023-04-25T00:36:52;9.90;;;1.77;;
46643;SDS011;32371;51.032;5.816;2023-04-25T00:39:18;15.90;;;2.47;;
46643;SDS011;32371;51.032;5.816;2023-04-25T00:41:43;7.60;;;2.13;;
46643;SDS011;32371;51.032;5.816;2023-04-25T00:44:10;15.13;;;2.60;;
46643;SDS011;32371;51.032;5.816;2023-04-25T00:46:36;8.02;;;2.20;;
46643;SDS011;32371;51.032;5.816;2023-04-25T00:49:02;9.88;;;2.30;;
46643;SDS011;32371;51.032;5.816;2023-04-25T00:51:28;8.50;;;2.88;;
46643;SDS011;32371;51.032;5.816;2023-04-25T00:53:55;4.85;;;1.95;;
46643;SDS011;32371;51.032;5.816;2023-04-25T00:56:21;11.85;;;2.20;;
46643;SDS011;32371;51.032;5.816;2023-04-25T00:58:46;12.10;;;3.08;;
46643;SDS011;32371;51.032;5.816;2023-04-25T01:01:13;8.43;;;2.08;;
46643;SDS011;32371;51.032;5.816;2023-04-25T01:03:39;4.65;;;2.30;;
46643;SDS011;32371;51.032;5.816;2023-04-25T01:06:08;9.40;;;2.00;;
46643;SDS011;32371;51.032;5.816;2023-04-25T01:08:34;6.93;;;1.88;;
46643;SDS011;32371;51.032;5.816;2023-04-25T01:11:00;8.48;;;2.35;;
46643;SDS011;32371;51.032;5.816;2023-04-25T01:13:26;12.40;;;2.92;;
46643;SDS011;32371;51.032;5.816;2023-04-25T01:15:51;8.00;;;2.65;;
46643;SDS011;32371;51.032;5.816;2023-04-25T01:18:17;9.00;;;2.38;;
46643;SDS011;32371;51.032;5.816;2023-04-25T01:20:43;7.75;;;2.25;;
46643;SDS011;32371;51.032;5.816;2023-04-25T01:23:10;7.75;;;1.88;;
46643;SDS011;32371;51.032;5.816;2023-04-25T01:25:35;11.23;;;2.17;;
46643;SDS011;32371;51.032;5.816;2023-04-25T01:28:01;14.93;;;2.33;;
46643;SDS011;32371;51.032;5.816;2023-04-25T01:30:26;11.27;;;2.65;;
46643;SDS011;32371;51.032;5.816;2023-04-25T01:32:53;11.45;;;2.65;;
46643;SDS011;32371;51.032;5.816;2023-04-25T01:35:20;10.57;;;2.47;;
46643;SDS011;32371;51.032;5.816;2023-04-25T01:37:45;6.05;;;2.45;;
46643;SDS011;32371;51.032;5.816;2023-04-25T01:40:11;6.10;;;2.22;;
46643;SDS011;32371;51.032;5.816;2023-04-25T01:42:38;4.70;;;1.65;;
46643;SDS011;32371;51.032;5.816;2023-04-25T01:45:05;7.85;;;1.90;;
46643;SDS011;32371;51.032;5.816;2023-04-25T01:47:31;12.50;;;3.08;;
46643;SDS011;32371;51.032;5.816;2023-04-25T01:49:57;8.75;;;3.05;;
46643;SDS011;32371;51.032;5.816;2023-04-25T01:52:22;15.20;;;3.00;;
46643;SDS011;32371;51.032;5.816;2023-04-25T01:54:48;12.63;;;3.42;;
46643;SDS011;32371;51.032;5.816;2023-04-25T01:57:15;5.60;;;1.95;;
46643;SDS011;32371;51.032;5.816;2023-04-25T01:59:40;7.82;;;2.35;;
46643;SDS011;32371;51.032;5.816;2023-04-25T02:02:06;12.20;;;2.70;;
46643;SDS011;32371;51.032;5.816;2023-04-25T02:04:33;7.82;;;2.58;;
46643;SDS011;32371;51.032;5.816;2023-04-25T02:06:58;10.52;;;2.38;;
46643;SDS011;32371;51.032;5.816;2023-04-25T02:09:23;8.30;;;2.92;;
46643;SDS011;32371;51.032;5.816;2023-04-25T02:11:49;10.13;;;2.88;;
46643;SDS011;32371;51.032;5.816;2023-04-25T02:14:14;11.80;;;2.53;;
46643;SDS011;32371;51.032;5.816;2023-04-25T02:16:40;6.80;;;1.98;;
46643;SDS011;32371;51.032;5.816;2023-04-25T02:19:05;6.40;;;1.73;;
46643;SDS011;32371;51.032;5.816;2023-04-25T02:21:31;9.07;;;2.67;;
46643;SDS011;32371;51.032;5.816;2023-04-25T02:23:57;7.60;;;2.22;;
46643;SDS011;32371;51.032;5.816;2023-04-25T02:26:23;6.15;;;2.20;;
46643;SDS011;32371;51.032;5.816;2023-04-25T02:28:51;7.38;;;2.58;;
46643;SDS011;32371;51.032;5.816;2023-04-25T02:31:16;11.73;;;2.58;;
46643;SDS011;32371;51.032;5.816;2023-04-25T02:33:42;8.50;;;2.67;;
46643;SDS011;32371;51.032;5.816;2023-04-25T02:36:08;12.63;;;3.20;;
46643;SDS011;32371;51.032;5.816;2023-04-25T02:38:33;7.00;;;2.65;;
46643;SDS011;32371;51.032;5.816;2023-04-25T02:40:59;9.98;;;2.58;;
46643;SDS011;32371;51.032;5.816;2023-04-25T02:43:24;8.85;;;2.38;;
46643;SDS011;32371;51.032;5.816;2023-04-25T02:45:50;9.02;;;2.90;;
46643;SDS011;32371;51.032;5.816;2023-04-25T02:48:15;9.02;;;2.60;;
46643;SDS011;32371;51.032;5.816;2023-04-25T02:50:40;7.47;;;2.17;;
46643;SDS011;32371;51.032;5.816;2023-04-25T02:53:06;8.93;;;2.58;;
46643;SDS011;32371;51.032;5.816;2023-04-25T02:55:31;10.57;;;2.70;;
46643;SDS011;32371;51.032;5.816;2023-04-25T02:57:57;7.32;;;2.38;;
46643;SDS011;32371;51.032;5.816;2023-04-25T03:00:22;11.20;;;2.97;;
46643;SDS011;32371;51.032;5.816;2023-04-25T03:02:48;5.30;;;2.00;;
46643;SDS011;32371;51.032;5.816;2023-04-25T03:05:13;9.95;;;2.25;;
46643;SDS011;32371;51.032;5.816;2023-04-25T03:07:39;6.78;;;2.10;;
46643;SDS011;32371;51.032;5.816;2023-04-25T03:10:05;12.75;;;2.88;;
46643;SDS011;32371;51.032;5.816;2023-04-25T03:12:32;9.98;;;2.42;;
46643;SDS011;32371;51.032;5.816;2023-04-25T03:14:57;14.10;;;2.17;;
46643;SDS011;32371;51.032;5.816;2023-04-25T03:17:22;10.23;;;2.30;;
46643;SDS011;32371;51.032;5.816;2023-04-25T03:19:48;9.18;;;2.42;;
46643;SDS011;32371;51.032;5.816;2023-04-25T03:22:14;12.73;;;2.85;;
46643;SDS011;32371;51.032;5.816;2023-04-25T03:24:39;5.22;;;2.35;;
46643;SDS011;32371;51.032;5.816;2023-04-25T03:27:05;10.18;;;2.90;;
46643;SDS011;32371;51.032;5.816;2023-04-25T03:29:30;12.02;;;3.70;;
46643;SDS011;32371;51.032;5.816;2023-04-25T03:31:56;11.30;;;2.72;;
46643;SDS011;32371;51.032;5.816;2023-04-25T03:34:21;10.10;;;2.55;;
46643;SDS011;32371;51.032;5.816;2023-04-25T03:36:47;9.48;;;2.78;;
46643;SDS011;32371;51.032;5.816;2023-04-25T03:39:12;4.50;;;1.92;;
46643;SDS011;32371;51.032;5.816;2023-04-25T03:41:37;5.38;;;2.38;;
46643;SDS011;32371;51.032;5.816;2023-04-25T03:44:03;19.92;;;3.35;;
46643;SDS011;32371;51.032;5.816;2023-04-25T03:46:28;9.18;;;2.50;;
46643;SDS011;32371;51.032;5.816;2023-04-25T03:48:54;10.88;;;2.45;;
46643;SDS011;32371;51.032;5.816;2023-04-25T03:51:20;9.10;;;2.00;;
46643;SDS011;32371;51.032;5.816;2023-04-25T03:53:45;8.43;;;2.45;;
46643;SDS011;32371;51.032;5.816;2023-04-25T03:56:11;9.13;;;2.35;;
46643;SDS011;32371;51.032;5.816;2023-04-25T03:58:36;6.70;;;2.50;;
46643;SDS011;32371;51.032;5.816;2023-04-25T04:01:01;8.95;;;2.38;;
46643;SDS011;32371;51.032;5.816;2023-04-25T04:03:33;10.10;;;2.55;;
46643;SDS011;32371;51.032;5.816;2023-04-25T04:06:00;9.50;;;2.90;;
46643;SDS011;32371;51.032;5.816;2023-04-25T04:08:25;15.05;;;3.22;;
46643;SDS011;32371;51.032;5.816;2023-04-25T04:10:50;12.25;;;2.95;;
46643;SDS011;32371;51.032;5.816;2023-04-25T04:13:16;16.15;;;3.33;;
46643;SDS011;32371;51.032;5.816;2023-04-25T04:15:41;8.90;;;2.50;;
46643;SDS011;32371;51.032;5.816;2023-04-25T04:18:06;11.25;;;3.72;;
46643;SDS011;32371;51.032;5.816;2023-04-25T04:20:32;12.73;;;3.50;;
46643;SDS011;32371;51.032;5.816;2023-04-25T04:22:57;11.02;;;2.65;;
46643;SDS011;32371;51.032;5.816;2023-04-25T04:25:23;16.17;;;3.70;;
46643;SDS011;32371;51.032;5.816;2023-04-25T04:27:49;6.80;;;2.63;;
46643;SDS011;32371;51.032;5.816;2023-04-25T04:30:16;9.73;;;2.65;;
46643;SDS011;32371;51.032;5.816;2023-04-25T04:32:42;13.38;;;2.58;;
46643;SDS011;32371;51.032;5.816;2023-04-25T04:35:08;7.47;;;2.63;;
46643;SDS011;32371;51.032;5.816;2023-04-25T04:37:34;10.10;;;2.95;;
46643;SDS011;32371;51.032;5.816;2023-04-25T04:39:59;16.40;;;3.03;;
46643;SDS011;32371;51.032;5.816;2023-04-25T04:42:26;10.38;;;3.05;;
46643;SDS011;32371;51.032;5.816;2023-04-25T04:44:51;11.57;;;3.00;;
46643;SDS011;32371;51.032;5.816;2023-04-25T04:47:17;13.63;;;3.67;;
46643;SDS011;32371;51.032;5.816;2023-04-25T04:49:42;6.90;;;2.90;;
46643;SDS011;32371;51.032;5.816;2023-04-25T04:52:08;10.05;;;3.08;;
46643;SDS011;32371;51.032;5.816;2023-04-25T04:54:33;15.40;;;3.97;;
46643;SDS011;32371;51.032;5.816;2023-04-25T04:57:00;14.75;;;3.13;;
46643;SDS011;32371;51.032;5.816;2023-04-25T04:59:25;7.82;;;3.90;;
46643;SDS011;32371;51.032;5.816;2023-04-25T05:01:52;15.68;;;3.55;;
46643;SDS011;32371;51.032;5.816;2023-04-25T05:04:18;10.65;;;2.95;;
46643;SDS011;32371;51.032;5.816;2023-04-25T05:06:44;6.97;;;2.53;;
46643;SDS011;32371;51.032;5.816;2023-04-25T05:09:09;9.88;;;3.17;;
46643;SDS011;32371;51.032;5.816;2023-04-25T05:11:36;14.00;;;2.95;;
46643;SDS011;32371;51.032;5.816;2023-04-25T05:14:01;6.88;;;2.78;;
46643;SDS011;32371;51.032;5.816;2023-04-25T05:16:27;10.38;;;2.85;;
46643;SDS011;32371;51.032;5.816;2023-04-25T05:18:53;10.18;;;2.47;;
46643;SDS011;32371;51.032;5.816;2023-04-25T05:21:18;12.50;;;2.67;;
46643;SDS011;32371;51.032;5.816;2023-04-25T05:23:43;8.05;;;3.38;;
46643;SDS011;32371;51.032;5.816;2023-04-25T05:26:09;14.70;;;3.00;;
46643;SDS011;32371;51.032;5.816;2023-04-25T05:28:38;18.42;;;3.10;;
46643;SDS011;32371;51.032;5.816;2023-04-25T05:31:05;17.20;;;2.95;;
46643;SDS011;32371;51.032;5.816;2023-04-25T05:33:30;12.52;;;2.97;;
46643;SDS011;32371;51.032;5.816;2023-04-25T05:35:55;7.85;;;3.58;;
46643;SDS011;32371;51.032;5.816;2023-04-25T05:38:21;10.65;;;2.72;;
46643;SDS011;32371;51.032;5.816;2023-04-25T05:40:46;6.03;;;2.08;;
46643;SDS011;32371;51.032;5.816;2023-04-25T05:43:12;11.25;;;2.45;;
46643;SDS011;32371;51.032;5.816;2023-04-25T05:45:37;11.40;;;2.72;;
46643;SDS011;32371;51.032;5.816;2023-04-25T05:48:02;11.13;;;2.25;;
46643;SDS011;32371;51.032;5.816;2023-04-25T05:50:28;10.75;;;2.35;;
46643;SDS011;32371;51.032;5.816;2023-04-25T05:52:53;9.45;;;2.70;;
46643;SDS011;32371;51.032;5.816;2023-04-25T05:55:18;16.50;;;2.75;;
46643;SDS011;32371;51.032;5.816;2023-04-25T05:57:45;13.82;;;2.95;;
46643;SDS011;32371;51.032;5.816;2023-04-25T06:00:14;6.85;;;2.55;;
46643;SDS011;32371;51.032;5.816;2023-04-25T06:02:41;11.65;;;3.25;;
46643;SDS011;32371;51.032;5.816;2023-04-25T06:05:07;8.95;;;2.63;;
46643;SDS011;32371;51.032;5.816;2023-04-25T06:07:33;10.75;;;1.98;;
46643;SDS011;32371;51.032;5.816;2023-04-25T06:09:58;10.85;;;2.55;;
46643;SDS011;32371;51.032;5.816;2023-04-25T06:12:25;7.65;;;2.72;;
46643;SDS011;32371;51.032;5.816;2023-04-25T06:14:51;9.30;;;2.30;;
46643;SDS011;32371;51.032;5.816;2023-04-25T06:17:16;5.35;;;2.40;;
46643;SDS011;32371;51.032;5.816;2023-04-25T06:19:41;9.55;;;3.03;;
46643;SDS011;32371;51.032;5.816;2023-04-25T06:22:07;9.43;;;2.42;;
46643;SDS011;32371;51.032;5.816;2023-04-25T06:24:33;14.23;;;3.05;;
46643;SDS011;32371;51.032;5.816;2023-04-25T06:26:58;10.52;;;2.47;;
46643;SDS011;32371;51.032;5.816;2023-04-25T06:29:24;12.98;;;2.70;;
46643;SDS011;32371;51.032;5.816;2023-04-25T06:31:50;7.15;;;2.25;;
46643;SDS011;32371;51.032;5.816;2023-04-25T06:34:15;9.60;;;2.47;;
46643;SDS011;32371;51.032;5.816;2023-04-25T06:36:41;11.77;;;2.67;;
46643;SDS011;32371;51.032;5.816;2023-04-25T06:39:06;10.40;;;2.35;;
46643;SDS011;32371;51.032;5.816;2023-04-25T06:41:31;5.57;;;1.60;;
46643;SDS011;32371;51.032;5.816;2023-04-25T06:43:57;10.65;;;2.15;;
46643;SDS011;32371;51.032;5.816;2023-04-25T06:46:22;9.50;;;3.08;;
46643;SDS011;32371;51.032;5.816;2023-04-25T06:48:48;6.32;;;2.53;;
46643;SDS011;32371;51.032;5.816;2023-04-25T06:51:13;10.60;;;2.88;;
46643;SDS011;32371;51.032;5.816;2023-04-25T06:53:39;11.73;;;2.60;;
46643;SDS011;32371;51.032;5.816;2023-04-25T06:56:05;12.93;;;2.25;;
46643;SDS011;32371;51.032;5.816;2023-04-25T06:58:30;8.55;;;2.47;;
46643;SDS011;32371;51.032;5.816;2023-04-25T07:00:56;8.55;;;2.03;;
46643;SDS011;32371;51.032;5.816;2023-04-25T07:03:21;15.40;;;3.05;;
46643;SDS011;32371;51.032;5.816;2023-04-25T07:05:47;7.60;;;2.22;;
46643;SDS011;32371;51.032;5.816;2023-04-25T07:08:12;5.53;;;2.20;;
46643;SDS011;32371;51.032;5.816;2023-04-25T07:10:38;3.90;;;1.77;;
46643;SDS011;32371;51.032;5.816;2023-04-25T07:13:05;6.32;;;2.10;;
46643;SDS011;32371;51.032;5.816;2023-04-25T07:15:30;8.88;;;2.55;;
46643;SDS011;32371;51.032;5.816;2023-04-25T07:17:55;6.85;;;1.77;;
46643;SDS011;32371;51.032;5.816;2023-04-25T07:20:21;4.75;;;1.60;;
46643;SDS011;32371;51.032;5.816;2023-04-25T07:22:46;7.90;;;1.67;;
46643;SDS011;32371;51.032;5.816;2023-04-25T07:25:12;6.03;;;1.73;;
46643;SDS011;32371;51.032;5.816;2023-04-25T07:27:37;7.68;;;2.08;;
46643;SDS011;32371;51.032;5.816;2023-04-25T07:30:03;10.18;;;2.60;;
46643;SDS011;32371;51.032;5.816;2023-04-25T07:32:29;8.13;;;1.58;;
46643;SDS011;32371;51.032;5.816;2023-04-25T07:34:54;5.57;;;1.58;;
46643;SDS011;32371;51.032;5.816;2023-04-25T07:37:20;5.43;;;1.52;;
46643;SDS011;32371;51.032;5.816;2023-04-25T07:39:45;10.35;;;1.40;;
46643;SDS011;32371;51.032;5.816;2023-04-25T07:42:11;10.10;;;1.85;;
46643;SDS011;32371;51.032;5.816;2023-04-25T07:44:37;8.88;;;1.55;;
46643;SDS011;32371;51.032;5.816;2023-04-25T07:47:06;9.23;;;2.30;;
46643;SDS011;32371;51.032;5.816;2023-04-25T07:49:35;10.70;;;2.30;;
46643;SDS011;32371;51.032;5.816;2023-04-25T07:52:02;8.55;;;1.73;;
46643;SDS011;32371;51.032;5.816;2023-04-25T07:54:28;8.18;;;2.33;;
46643;SDS011;32371;51.032;5.816;2023-04-25T07:56:53;10.40;;;1.73;;
46643;SDS011;32371;51.032;5.816;2023-04-25T07:59:19;8.27;;;1.83;;
46643;SDS011;32371;51.032;5.816;2023-04-25T08:01:45;17.52;;;1.65;;
46643;SDS011;32371;51.032;5.816;2023-04-25T08:04:10;10.45;;;1.58;;
46643;SDS011;32371;51.032;5.816;2023-04-25T08:06:36;5.57;;;1.38;;
46643;SDS011;32371;51.032;5.816;2023-04-25T08:09:01;12.90;;;2.72;;
46643;SDS011;32371;51.032;5.816;2023-04-25T08:11:27;8.20;;;1.63;;
46643;SDS011;32371;51.032;5.816;2023-04-25T08:13:53;5.07;;;1.98;;
46643;SDS011;32371;51.032;5.816;2023-04-25T08:16:18;5.03;;;1.73;;
46643;SDS011;32371;51.032;5.816;2023-04-25T08:18:44;8.43;;;1.77;;
46643;SDS011;32371;51.032;5.816;2023-04-25T08:21:09;6.40;;;1.67;;
46643;SDS011;32371;51.032;5.816;2023-04-25T08:23:36;7.80;;;2.28;;
46643;SDS011;32371;51.032;5.816;2023-04-25T08:26:02;3.92;;;1.20;;
46643;SDS011;32371;51.032;5.816;2023-04-25T08:28:28;3.58;;;1.40;;
46643;SDS011;32371;51.032;5.816;2023-04-25T08:30:53;6.03;;;1.30;;
46643;SDS011;32371;51.032;5.816;2023-04-25T08:33:19;5.45;;;1.30;;
46643;SDS011;32371;51.032;5.816;2023-04-25T08:35:44;5.93;;;1.80;;
46643;SDS011;32371;51.032;5.816;2023-04-25T08:38:10;5.88;;;1.42;;
46643;SDS011;32371;51.032;5.816;2023-04-25T08:40:37;3.47;;;1.50;;
46643;SDS011;32371;51.032;5.816;2023-04-25T08:43:03;6.28;;;1.60;;
46643;SDS011;32371;51.032;5.816;2023-04-25T08:45:29;8.02;;;1.40;;
46643;SDS011;32371;51.032;5.816;2023-04-25T08:47:56;6.00;;;1.55;;
46643;SDS011;32371;51.032;5.816;2023-04-25T08:50:22;6.68;;;1.48;;
46643;SDS011;32371;51.032;5.816;2023-04-25T08:52:48;1.95;;;1.13;;
46643;SDS011;32371;51.032;5.816;2023-04-25T08:55:17;3.72;;;1.48;;
46643;SDS011;32371;51.032;5.816;2023-04-25T08:57:43;11.65;;;1.55;;
46643;SDS011;32371;51.032;5.816;2023-04-25T09:00:10;8.57;;;1.80;;
46643;SDS011;32371;51.032;5.816;2023-04-25T09:02:37;7.55;;;1.80;;
46643;SDS011;32371;51.032;5.816;2023-04-25T09:05:03;11.13;;;2.08;;
46643;SDS011;32371;51.032;5.816;2023-04-25T09:07:29;6.00;;;1.63;;
46643;SDS011;32371;51.032;5.816;2023-04-25T09:09:55;9.30;;;1.23;;
46643;SDS011;32371;51.032;5.816;2023-04-25T09:12:20;6.38;;;1.67;;
46643;SDS011;32371;51.032;5.816;2023-04-25T09:15:09;6.65;;;1.45;;
46643;SDS011;32371;51.032;5.816;2023-04-25T09:17:35;6.25;;;1.60;;
46643;SDS011;32371;51.032;5.816;2023-04-25T09:20:14;7.55;;;1.33;;
46643;SDS011;32371;51.032;5.816;2023-04-25T09:22:40;4.30;;;1.33;;
46643;SDS011;32371;51.032;5.816;2023-04-25T09:25:09;9.23;;;2.25;;
46643;SDS011;32371;51.032;5.816;2023-04-25T09:27:35;7.38;;;1.55;;
46643;SDS011;32371;51.032;5.816;2023-04-25T09:30:01;7.13;;;2.10;;
46643;SDS011;32371;51.032;5.816;2023-04-25T09:32:27;5.55;;;2.00;;
46643;SDS011;32371;51.032;5.816;2023-04-25T09:34:54;4.97;;;1.58;;
46643;SDS011;32371;51.032;5.816;2023-04-25T09:37:25;8.38;;;1.23;;
46643;SDS011;32371;51.032;5.816;2023-04-25T09:39:53;8.32;;;1.83;;
46643;SDS011;32371;51.032;5.816;2023-04-25T09:42:23;5.55;;;1.23;;
46643;SDS011;32371;51.032;5.816;2023-04-25T09:44:51;3.38;;;1.20;;
46643;SDS011;32371;51.032;5.816;2023-04-25T09:47:20;4.90;;;1.40;;
46643;SDS011;32371;51.032;5.816;2023-04-25T09:49:48;6.63;;;1.70;;
46643;SDS011;32371;51.032;5.816;2023-04-25T09:52:18;6.70;;;2.00;;
46643;SDS011;32371;51.032;5.816;2023-04-25T09:54:45;3.38;;;1.20;;
46643;SDS011;32371;51.032;5.816;2023-04-25T09:59:38;4.70;;;0.98;;
46643;SDS011;32371;51.032;5.816;2023-04-25T10:02:08;2.67;;;1.17;;
46643;SDS011;32371;51.032;5.816;2023-04-25T10:04:34;5.70;;;1.02;;
46643;SDS011;32371;51.032;5.816;2023-04-25T10:07:01;7.25;;;1.10;;
46643;SDS011;32371;51.032;5.816;2023-04-25T10:09:29;4.25;;;1.00;;
46643;SDS011;32371;51.032;5.816;2023-04-25T10:12:00;7.75;;;0.93;;
46643;SDS011;32371;51.032;5.816;2023-04-25T10:14:25;2.83;;;0.80;;
46643;SDS011;32371;51.032;5.816;2023-04-25T10:16:51;2.92;;;0.80;;
46643;SDS011;32371;51.032;5.816;2023-04-25T10:19:20;2.83;;;0.60;;
46643;SDS011;32371;51.032;5.816;2023-04-25T10:21:48;4.13;;;0.77;;
46643;SDS011;32371;51.032;5.816;2023-04-25T10:24:16;6.72;;;0.90;;
46643;SDS011;32371;51.032;5.816;2023-04-25T10:26:41;3.17;;;0.70;;
46643;SDS011;32371;51.032;5.816;2023-04-25T10:29:06;2.58;;;0.68;;
46643;SDS011;32371;51.032;5.816;2023-04-25T10:31:32;5.10;;;0.82;;
46643;SDS011;32371;51.032;5.816;2023-04-25T10:33:59;2.17;;;0.80;;
46643;SDS011;32371;51.032;5.816;2023-04-25T10:36:24;3.97;;;0.68;;
46643;SDS011;32371;51.032;5.816;2023-04-25T10:38:52;0.85;;;0.50;;
46643;SDS011;32371;51.032;5.816;2023-04-25T10:41:19;1.83;;;0.77;;
46643;SDS011;32371;51.032;5.816;2023-04-25T10:43:48;2.05;;;0.90;;
46643;SDS011;32371;51.032;5.816;2023-04-25T10:53:46;3.90;;;1.20;;
46643;SDS011;32371;51.032;5.816;2023-04-25T10:56:21;3.50;;;0.77;;
46643;SDS011;32371;51.032;5.816;2023-04-25T10:58:47;4.82;;;0.80;;
46643;SDS011;32371;51.032;5.816;2023-04-25T11:01:13;4.57;;;0.90;;
46643;SDS011;32371;51.032;5.816;2023-04-25T11:03:43;8.30;;;0.93;;
46643;SDS011;32371;51.032;5.816;2023-04-25T11:06:31;2.55;;;0.65;;
46643;SDS011;32371;51.032;5.816;2023-04-25T11:08:57;7.47;;;0.80;;
46643;SDS011;32371;51.032;5.816;2023-04-25T11:11:25;4.93;;;0.98;;
46643;SDS011;32371;51.032;5.816;2023-04-25T11:13:51;1.83;;;0.90;;
46643;SDS011;32371;51.032;5.816;2023-04-25T11:16:17;4.43;;;0.88;;
46643;SDS011;32371;51.032;5.816;2023-04-25T11:18:42;4.32;;;1.00;;
46643;SDS011;32371;51.032;5.816;2023-04-25T11:21:09;4.25;;;0.70;;
46643;SDS011;32371;51.032;5.816;2023-04-25T11:23:35;2.80;;;1.35;;
46643;SDS011;32371;51.032;5.816;2023-04-25T11:26:01;3.75;;;1.15;;
46643;SDS011;32371;51.032;5.816;2023-04-25T11:28:28;1.33;;;0.88;;
46643;SDS011;32371;51.032;5.816;2023-04-25T11:30:53;7.38;;;0.80;;
46643;SDS011;32371;51.032;5.816;2023-04-25T11:33:23;2.90;;;0.82;;
46643;SDS011;32371;51.032;5.816;2023-04-25T11:35:49;3.45;;;0.80;;
46643;SDS011;32371;51.032;5.816;2023-04-25T11:38:14;4.28;;;0.80;;
46643;SDS011;32371;51.032;5.816;2023-04-25T11:40:40;2.25;;;0.88;;
46643;SDS011;32371;51.032;5.816;2023-04-25T11:43:06;5.57;;;1.08;;
46643;SDS011;32371;51.032;5.816;2023-04-25T11:45:32;4.25;;;1.00;;
46643;SDS011;32371;51.032;5.816;2023-04-25T11:47:57;5.43;;;1.13;;
46643;SDS011;32371;51.032;5.816;2023-04-25T11:50:23;2.47;;;1.15;;
46643;SDS011;32371;51.032;5.816;2023-04-25T11:52:48;2.40;;;0.70;;
46643;SDS011;32371;51.032;5.816;2023-04-25T11:55:14;2.40;;;0.70;;
46643;SDS011;32371;51.032;5.816;2023-04-25T11:57:44;3.58;;;0.80;;
46643;SDS011;32371;51.032;5.816;2023-04-25T12:00:17;2.00;;;1.00;;
46643;SDS011;32371;51.032;5.816;2023-04-25T12:02:51;5.78;;;0.77;;
46643;SDS011;32371;51.032;5.816;2023-04-25T12:05:18;4.43;;;0.85;;
46643;SDS011;32371;51.032;5.816;2023-04-25T12:07:45;2.78;;;0.80;;
46643;SDS011;32371;51.032;5.816;2023-04-25T12:10:12;4.63;;;0.73;;
46643;SDS011;32371;51.032;5.816;2023-04-25T12:12:42;2.42;;;0.70;;
46643;SDS011;32371;51.032;5.816;2023-04-25T12:15:11;18.65;;;1.25;;
46643;SDS011;32371;51.032;5.816;2023-04-25T12:17:44;3.20;;;0.65;;
46643;SDS011;32371;51.032;5.816;2023-04-25T12:20:15;4.32;;;0.95;;
46643;SDS011;32371;51.032;5.816;2023-04-25T12:22:45;6.22;;;1.10;;
46643;SDS011;32371;51.032;5.816;2023-04-25T12:25:12;3.28;;;1.38;;
46643;SDS011;32371;51.032;5.816;2023-04-25T12:27:39;2.45;;;0.60;;
46643;SDS011;32371;51.032;5.816;2023-04-25T12:30:08;3.58;;;0.88;;
46643;SDS011;32371;51.032;5.816;2023-04-25T12:32:35;4.30;;;0.90;;
46643;SDS011;32371;51.032;5.816;2023-04-25T12:35:01;4.38;;;0.70;;
46643;SDS011;32371;51.032;5.816;2023-04-25T12:37:28;5.38;;;1.40;;
46643;SDS011;32371;51.032;5.816;2023-04-25T12:39:53;3.58;;;1.00;;
46643;SDS011;32371;51.032;5.816;2023-04-25T12:42:19;2.95;;;0.77;;
46643;SDS011;32371;51.032;5.816;2023-04-25T12:44:44;4.82;;;1.23;;
46643;SDS011;32371;51.032;5.816;2023-04-25T12:47:11;1.73;;;0.50;;
46643;SDS011;32371;51.032;5.816;2023-04-25T12:49:36;2.35;;;0.73;;
46643;SDS011;32371;51.032;5.816;2023-04-25T12:52:02;6.00;;;1.15;;
46643;SDS011;32371;51.032;5.816;2023-04-25T12:54:27;4.88;;;0.70;;
46643;SDS011;32371;51.032;5.816;2023-04-25T12:56:53;4.35;;;0.98;;
46643;SDS011;32371;51.032;5.816;2023-04-25T12:59:18;6.18;;;0.90;;
46643;SDS011;32371;51.032;5.816;2023-04-25T13:01:45;4.80;;;0.82;;
46643;SDS011;32371;51.032;5.816;2023-04-25T13:04:10;3.47;;;0.93;;
46643;SDS011;32371;51.032;5.816;2023-04-25T13:06:36;7.13;;;0.95;;
46643;SDS011;32371;51.032;5.816;2023-04-25T13:09:01;2.80;;;1.00;;
46643;SDS011;32371;51.032;5.816;2023-04-25T13:11:27;2.13;;;0.60;;
46643;SDS011;32371;51.032;5.816;2023-04-25T13:13:52;2.58;;;1.02;;
46643;SDS011;32371;51.032;5.816;2023-04-25T13:16:17;3.92;;;0.80;;
46643;SDS011;32371;51.032;5.816;2023-04-25T13:18:45;5.05;;;0.60;;
46643;SDS011;32371;51.032;5.816;2023-04-25T13:21:11;2.38;;;1.00;;
46643;SDS011;32371;51.032;5.816;2023-04-25T13:23:36;5.82;;;1.08;;
46643;SDS011;32371;51.032;5.816;2023-04-25T13:26:01;1.98;;;0.73;;
46643;SDS011;32371;51.032;5.816;2023-04-25T13:28:27;4.10;;;0.70;;
46643;SDS011;32371;51.032;5.816;2023-04-25T13:30:53;5.35;;;1.45;;
46643;SDS011;32371;51.032;5.816;2023-04-25T13:33:19;3.90;;;0.90;;
46643;SDS011;32371;51.032;5.816;2023-04-25T13:35:45;2.85;;;0.75;;
46643;SDS011;32371;51.032;5.816;2023-04-25T13:38:14;3.35;;;0.88;;
46643;SDS011;32371;51.032;5.816;2023-04-25T13:40:40;4.65;;;0.75;;
46643;SDS011;32371;51.032;5.816;2023-04-25T13:43:05;4.57;;;0.88;;
46643;SDS011;32371;51.032;5.816;2023-04-25T13:45:31;5.93;;;1.20;;
46643;SDS011;32371;51.032;5.816;2023-04-25T13:47:57;5.90;;;0.90;;
46643;SDS011;32371;51.032;5.816;2023-04-25T13:50:22;3.17;;;0.82;;
46643;SDS011;32371;51.032;5.816;2023-04-25T13:52:48;7.53;;;1.13;;
46643;SDS011;32371;51.032;5.816;2023-04-25T13:55:14;2.45;;;0.68;;
46643;SDS011;32371;51.032;5.816;2023-04-25T13:57:39;2.20;;;0.98;;
46643;SDS011;32371;51.032;5.816;2023-04-25T14:00:05;3.08;;;0.90;;
46643;SDS011;32371;51.032;5.816;2023-04-25T14:02:36;3.42;;;0.82;;
46643;SDS011;32371;51.032;5.816;2023-04-25T14:05:03;2.25;;;0.55;;
46643;SDS011;32371;51.032;5.816;2023-04-25T14:07:30;3.40;;;0.80;;
46643;SDS011;32371;51.032;5.816;2023-04-25T14:09:56;2.45;;;0.90;;
46643;SDS011;32371;51.032;5.816;2023-04-25T14:12:24;1.92;;;0.82;;
46643;SDS011;32371;51.032;5.816;2023-04-25T14:14:50;2.58;;;0.82;;
46643;SDS011;32371;51.032;5.816;2023-04-25T14:17:15;5.60;;;0.52;;
46643;SDS011;32371;51.032;5.816;2023-04-25T14:19:41;2.28;;;0.43;;
46643;SDS011;32371;51.032;5.816;2023-04-25T14:22:10;0.85;;;0.60;;
46643;SDS011;32371;51.032;5.816;2023-04-25T14:24:35;2.47;;;0.45;;
46643;SDS011;32371;51.032;5.816;2023-04-25T14:27:01;5.32;;;0.55;;
46643;SDS011;32371;51.032;5.816;2023-04-25T14:29:26;3.22;;;0.73;;
46643;SDS011;32371;51.032;5.816;2023-04-25T14:31:52;4.50;;;0.70;;
46643;SDS011;32371;51.032;5.816;2023-04-25T14:34:18;3.33;;;0.90;;
46643;SDS011;32371;51.032;5.816;2023-04-25T14:36:43;1.55;;;0.60;;
46643;SDS011;32371;51.032;5.816;2023-04-25T14:39:09;3.35;;;0.60;;
46643;SDS011;32371;51.032;5.816;2023-04-25T14:41:35;2.28;;;0.55;;
46643;SDS011;32371;51.032;5.816;2023-04-25T14:44:00;1.38;;;0.43;;
46643;SDS011;32371;51.032;5.816;2023-04-25T14:46:26;2.20;;;0.30;;